Time;durP1;ratioP1;P1;durP2;ratioP2;P2;SDS_P1;SDS_P2;PMS_P1;PMS_P2;Temp;Humidity;BMP_temperature;BMP_pressure;BME280_temperature;BME280_humidity;BME280_pressure;Samples;Min_cycle;Max_cycle;Signal;HPM_P1;HPM_P2
2022/06/07 00:02:28;;;;;;;32.83;26.08;;;;;;;12.76;100.00;101274.25;4970035;28;20085;-79
2022/06/07 00:04:55;;;;;;;30.65;26.05;;;;;;;12.80;100.00;101281.00;4959246;28;20019;-80
2022/06/07 00:07:21;;;;;;;32.50;26.23;;;;;;;12.77;100.00;101276.78;4950891;28;20507;-79
2022/06/07 00:09:46;;;;;;;31.50;25.33;;;;;;;12.79;100.00;101279.31;4951116;28;20031;-79
2022/06/07 00:12:12;;;;;;;31.08;25.23;;;;;;;12.80;100.00;101270.44;4951320;29;20041;-79
2022/06/07 00:14:38;;;;;;;37.85;27.75;;;;;;;12.80;100.00;101275.72;4948963;29;20118;-79
2022/06/07 00:17:07;;;;;;;33.58;27.05;;;;;;;12.80;100.00;101265.97;4966780;28;20110;-79
2022/06/07 00:19:34;;;;;;;32.42;28.02;;;;;;;12.78;100.00;101264.41;4930232;29;20038;-79
2022/06/07 00:22:00;;;;;;;34.75;28.35;;;;;;;12.79;100.00;101268.75;4931952;29;20482;-79
2022/06/07 00:24:26;;;;;;;32.78;27.63;;;;;;;12.78;100.00;101265.25;4932398;29;20031;-79
2022/06/07 00:26:52;;;;;;;39.55;29.27;;;;;;;12.76;100.00;101255.78;4931930;29;20473;-80
2022/06/07 00:29:19;;;;;;;38.42;30.00;;;;;;;12.79;100.00;101256.38;4931679;29;20027;-79
2022/06/07 00:31:44;;;;;;;36.75;28.90;;;;;;;12.79;100.00;101259.03;4930322;29;20103;-79
2022/06/07 00:34:11;;;;;;;35.85;28.50;;;;;;;12.81;99.96;101251.00;4930868;29;20131;-80
2022/06/07 00:36:37;;;;;;;38.35;30.65;;;;;;;12.77;99.86;101252.19;4931181;29;20504;-80
2022/06/07 00:39:04;;;;;;;39.67;30.55;;;;;;;12.76;100.00;101253.13;4932796;29;20042;-80
2022/06/07 00:41:30;;;;;;;37.38;29.73;;;;;;;12.75;100.00;101241.72;4931033;29;20110;-80
2022/06/07 00:44:25;;;;;;;35.03;28.08;;;;;;;12.79;100.00;101240.53;4931021;29;20114;-80
2022/06/07 00:46:58;;;;;;;40.45;29.08;;;;;;;12.76;99.98;101239.94;4930240;29;20024;-80
2022/06/07 00:49:25;;;;;;;33.58;27.63;;;;;;;12.74;99.51;101241.84;4930148;29;20629;-80
2022/06/07 00:51:51;;;;;;;32.83;27.10;;;;;;;12.71;99.20;101229.72;4928917;29;20597;-80
2022/06/07 00:54:27;;;;;;;32.28;27.17;;;;;;;12.69;99.18;101241.38;4930788;29;20482;-80
2022/06/07 00:56:53;;;;;;;30.40;25.73;;;;;;;12.66;98.98;101238.97;4944194;29;20032;-80
2022/06/07 00:59:18;;;;;;;29.08;25.38;;;;;;;12.65;99.04;101229.38;4929549;29;20051;-80
2022/06/07 01:01:44;;;;;;;29.38;25.13;;;;;;;12.66;99.00;101225.75;4928914;29;20039;-80
2022/06/07 01:04:09;;;;;;;32.38;25.95;;;;;;;12.66;98.99;101225.75;4953998;28;20357;-80
2022/06/07 01:12:04;;;;;;;27.20;24.08;;;;;;;12.67;98.28;101227.44;4961978;28;20481;-80
2022/06/07 01:14:29;;;;;;;26.60;22.90;;;;;;;12.65;97.77;101232.00;4952827;28;20023;-80
2022/06/07 01:16:55;;;;;;;27.90;23.05;;;;;;;12.65;97.85;101224.09;4953375;28;20045;-80
2022/06/07 01:19:20;;;;;;;25.10;20.77;;;;;;;12.63;97.31;101218.09;4970290;28;20023;-80
2022/06/07 01:21:46;;;;;;;24.17;20.40;;;;;;;12.62;97.12;101211.13;4971949;28;20030;-80
2022/06/07 01:24:14;;;;;;;23.73;19.17;;;;;;;12.62;96.20;101213.75;4972714;28;20019;-80
2022/06/07 01:26:40;;;;;;;22.55;18.70;;;;;;;12.62;95.73;101213.75;4969741;28;20129;-79
2022/06/07 01:29:05;;;;;;;24.80;19.10;;;;;;;12.62;95.64;101213.75;4972672;28;20026;-80
2022/06/07 01:31:31;;;;;;;25.67;18.63;;;;;;;12.59;95.77;101206.06;4971339;28;20043;-79
2022/06/07 01:33:57;;;;;;;21.98;18.00;;;;;;;12.60;95.46;101207.75;4970899;28;20030;-80
2022/06/07 01:36:22;;;;;;;22.73;19.08;;;;;;;12.58;95.72;101210.50;4972216;28;20089;-80
2022/06/07 01:41:53;;;;;;;24.65;18.73;;;;;;;12.58;95.42;101212.31;4970037;28;20030;-80
2022/06/07 01:44:18;;;;;;;20.88;16.95;;;;;;;12.52;95.01;101208.34;4973433;28;20086;-80
2022/06/07 01:46:43;;;;;;;19.27;16.63;;;;;;;12.52;94.88;101205.72;4972207;28;20039;-80
2022/06/07 01:49:09;;;;;;;19.70;16.63;;;;;;;12.48;95.29;101202.47;4973241;28;20027;-80
2022/06/07 01:51:34;;;;;;;18.70;14.48;;;;;;;12.49;94.57;101201.50;4972518;28;20030;-80
2022/06/07 01:53:59;;;;;;;16.48;13.85;;;;;;;12.48;93.87;101202.47;4971291;28;20077;-80
2022/06/07 01:56:25;;;;;;;20.67;14.55;;;;;;;12.46;93.46;101199.09;4971647;28;20042;-80
2022/06/07 01:58:50;;;;;;;18.83;13.65;;;;;;;12.45;93.67;101194.78;4972675;28;20038;-80
2022/06/07 02:01:15;;;;;;;20.13;12.38;;;;;;;12.44;93.06;101192.25;4958408;28;20059;-80
2022/06/07 02:03:41;;;;;;;17.08;12.20;;;;;;;12.41;92.35;101190.69;4934378;28;20437;-80
2022/06/07 02:06:10;;;;;;;15.20;12.30;;;;;;;12.39;92.62;101192.59;4971620;28;20034;-80
2022/06/07 02:08:40;;;;;;;16.38;11.73;;;;;;;12.39;92.52;101186.47;4969492;28;20047;-80
2022/06/07 02:11:09;;;;;;;16.02;12.35;;;;;;;12.37;92.45;101183.94;4969473;28;20041;-80
2022/06/07 02:13:35;;;;;;;14.70;11.43;;;;;;;12.34;92.02;101194.75;4952016;28;20031;-80
2022/06/07 02:16:01;;;;;;;17.05;11.30;;;;;;;12.34;92.13;101189.47;4951526;28;20054;-80
2022/06/07 02:18:26;;;;;;;16.15;11.60;;;;;;;12.32;92.00;101179.97;4961232;28;20058;-80
2022/06/07 02:20:54;;;;;;;15.68;11.23;;;;;;;12.31;91.12;101183.56;4969035;28;20037;-80
2022/06/07 02:23:21;;;;;;;13.45;10.80;;;;;;;12.27;92.01;101182.13;4971478;28;20499;-80
2022/06/07 02:25:51;;;;;;;13.02;10.15;;;;;;;12.25;92.32;101179.59;4971024;28;20018;-80
2022/06/07 02:28:18;;;;;;;14.02;10.38;;;;;;;12.23;91.51;101186.81;4985765;28;20027;-80
2022/06/07 02:30:45;;;;;;;12.77;10.00;;;;;;;12.22;91.44;101179.84;4969491;28;20030;-80
2022/06/07 02:33:12;;;;;;;14.68;9.50;;;;;;;12.20;91.36;101181.75;4969882;28;20030;-80
2022/06/07 02:35:40;;;;;;;15.52;9.80;;;;;;;12.18;91.74;101173.13;4968598;28;20057;-80
2022/06/07 02:38:07;;;;;;;12.27;9.55;;;;;;;12.17;91.66;101174.06;4971149;28;20342;-80
2022/06/07 02:40:34;;;;;;;12.27;9.00;;;;;;;12.16;90.81;101175.03;4969449;28;20097;-81
2022/06/07 02:43:00;;;;;;;12.63;9.43;;;;;;;12.14;91.47;101171.66;4969182;28;20034;-81
2022/06/07 02:45:25;;;;;;;12.13;8.10;;;;;;;12.13;90.58;101164.72;4969830;28;20027;-80
2022/06/07 02:47:51;;;;;;;14.15;8.43;;;;;;;12.12;90.69;101163.03;4970242;28;20370;-80
2022/06/07 02:50:16;;;;;;;8.82;7.53;;;;;;;12.10;90.59;101160.50;4970626;28;20112;-81
2022/06/07 02:52:42;;;;;;;12.57;7.75;;;;;;;12.11;89.67;101166.63;4968844;28;20113;-81
2022/06/07 02:55:07;;;;;;;11.70;8.20;;;;;;;12.09;90.33;101168.53;4986675;28;20121;-80
2022/06/07 02:57:33;;;;;;;11.63;7.45;;;;;;;12.07;90.37;101160.75;4969517;28;20485;-80
2022/06/07 02:59:58;;;;;;;13.77;7.63;;;;;;;12.07;90.34;101159.91;4970660;28;20026;-81
2022/06/07 03:02:23;;;;;;;9.93;7.10;;;;;;;12.06;89.98;101158.22;4971856;28;20039;-81
2022/06/07 03:04:49;;;;;;;12.93;7.20;;;;;;;12.04;90.22;101160.13;4960800;28;20031;-80
2022/06/07 03:07:14;;;;;;;8.98;6.72;;;;;;;12.05;89.60;101159.19;4952624;28;20375;-80
2022/06/07 03:09:40;;;;;;;8.75;6.28;;;;;;;12.04;89.47;101165.41;4950491;29;20055;-81
2022/06/07 03:12:05;;;;;;;10.05;6.80;;;;;;;12.05;89.87;101169.72;4951912;28;20031;-81
2022/06/07 03:14:31;;;;;;;10.07;6.85;;;;;;;12.04;90.23;101170.69;4951668;28;20074;-81
2022/06/07 03:16:56;;;;;;;10.23;7.00;;;;;;;12.04;90.00;101181.25;4951436;28;20110;-80
2022/06/07 03:19:22;;;;;;;11.25;6.60;;;;;;;12.06;89.54;101181.97;4969426;28;20022;-81
2022/06/07 03:21:47;;;;;;;10.60;7.07;;;;;;;12.05;89.91;101182.91;4984876;28;20023;-81
2022/06/07 03:24:13;;;;;;;10.02;6.38;;;;;;;12.04;89.16;101189.16;4969830;28;20034;-81
2022/06/07 03:26:38;;;;;;;10.20;6.30;;;;;;;12.02;89.43;101191.06;4969479;28;20291;-81
2022/06/07 03:29:04;;;;;;;10.52;6.47;;;;;;;12.02;89.23;101185.78;4970153;28;20458;-81
2022/06/07 03:31:30;;;;;;;8.95;6.40;;;;;;;11.98;89.07;101187.78;4969209;28;20027;-81
2022/06/07 03:33:56;;;;;;;11.48;6.88;;;;;;;11.98;89.64;101182.50;4968677;28;20033;-80
2022/06/07 03:36:28;;;;;;;8.57;6.22;;;;;;;11.98;89.03;101189.59;4968818;28;20037;-81
2022/06/07 03:38:56;;;;;;;9.15;6.40;;;;;;;11.97;88.88;101188.75;4984369;28;20037;-81
2022/06/07 03:41:25;;;;;;;12.90;6.60;;;;;;;11.98;89.53;101197.50;4970049;28;20034;-80
2022/06/07 03:43:50;;;;;;;9.02;5.80;;;;;;;11.98;89.25;101197.50;4969410;28;20110;-80
2022/06/07 03:46:23;;;;;;;7.68;6.38;;;;;;;11.98;89.08;101195.69;4968077;28;20543;-80
2022/06/07 03:48:50;;;;;;;10.25;6.10;;;;;;;12.00;89.33;101195.56;4969481;28;20190;-80
2022/06/07 03:51:18;;;;;;;10.07;6.10;;;;;;;12.00;89.29;101200.84;4970132;28;20661;-80
2022/06/07 03:53:43;;;;;;;7.78;5.82;;;;;;;12.01;88.99;101202.53;4983386;28;20030;-80
2022/06/07 03:56:10;;;;;;;9.88;6.00;;;;;;;11.98;89.21;101202.75;4970140;28;20033;-80
2022/06/07 03:58:39;;;;;;;7.63;6.18;;;;;;;11.98;89.44;101202.75;4967964;28;20042;-80
2022/06/07 04:01:06;;;;;;;13.35;6.22;;;;;;;11.97;89.12;101204.56;4963445;28;20028;-81
2022/06/07 04:03:32;;;;;;;11.25;6.60;;;;;;;11.95;89.41;101209.09;4955688;28;20055;-81
2022/06/07 04:05:58;;;;;;;11.18;6.60;;;;;;;11.97;89.00;101203.72;4966824;28;20065;-81
2022/06/07 04:08:25;;;;;;;10.30;7.03;;;;;;;11.98;88.89;101208.88;4968426;28;20425;-81
2022/06/07 04:10:53;;;;;;;13.55;6.72;;;;;;;11.99;88.78;101207.91;4984811;28;20033;-81
2022/06/07 04:13:21;;;;;;;12.02;6.40;;;;;;;11.98;88.82;101213.31;4949672;29;20398;-81
2022/06/07 04:15:47;;;;;;;10.77;6.43;;;;;;;11.99;89.60;101210.56;4950797;28;20019;-81
2022/06/07 04:18:13;;;;;;;9.13;5.75;;;;;;;12.00;89.14;101211.41;4959199;28;20030;-81
2022/06/07 04:20:38;;;;;;;13.48;6.65;;;;;;;12.00;89.83;101212.25;4968304;28;20027;-81
2022/06/07 04:23:06;;;;;;;11.23;6.85;;;;;;;12.02;89.24;101210.38;4971056;28;20055;-81
2022/06/07 04:25:36;;;;;;;9.15;6.80;;;;;;;12.02;89.39;101213.00;4984992;28;20023;-81
2022/06/07 04:28:02;;;;;;;11.27;7.15;;;;;;;12.05;89.24;101214.56;4968940;28;20031;-81
2022/06/07 04:30:27;;;;;;;13.68;6.65;;;;;;;12.06;89.82;101208.34;4969249;28;20447;-81
2022/06/07 04:32:53;;;;;;;9.90;7.15;;;;;;;12.06;89.26;101206.53;4985075;28;20042;-81
2022/06/07 04:35:18;;;;;;;9.88;7.00;;;;;;;12.09;89.16;101205.47;4970196;28;20504;-81
2022/06/07 04:37:48;;;;;;;11.18;7.38;;;;;;;12.12;89.16;101210.50;4969978;28;20408;-81
2022/06/07 04:40:14;;;;;;;11.57;7.47;;;;;;;12.15;89.50;101211.13;4973138;28;20026;-81
2022/06/07 04:42:41;;;;;;;11.63;7.28;;;;;;;12.18;89.69;101210.88;4971328;28;20023;-81
2022/06/07 04:45:14;;;;;;;12.02;7.18;;;;;;;12.20;88.95;101218.69;4973051;28;20022;-81
2022/06/07 04:47:40;;;;;;;12.02;7.60;;;;;;;12.22;89.12;101220.25;4971343;28;20552;-81
2022/06/07 04:50:07;;;;;;;11.57;7.80;;;;;;;12.29;88.61;101218.00;4972697;28;20085;-81
2022/06/07 04:52:32;;;;;;;9.98;7.18;;;;;;;12.29;88.43;101220.63;4971449;28;20114;-81
2022/06/07 04:54:58;;;;;;;11.20;7.50;;;;;;;12.34;88.81;101220.28;4971579;28;20121;-81
2022/06/07 04:57:23;;;;;;;11.23;7.78;;;;;;;12.35;88.40;101227.25;4971189;28;20030;-81
2022/06/07 04:59:48;;;;;;;12.52;8.07;;;;;;;12.38;88.61;101229.66;4970962;28;20038;-81
2022/06/07 05:02:14;;;;;;;11.95;8.50;;;;;;;12.38;88.05;101227.84;4987920;28;20078;-81
2022/06/07 05:04:39;;;;;;;14.85;8.20;;;;;;;12.41;88.24;101217.09;4962948;28;20110;-81
2022/06/07 05:07:05;;;;;;;10.30;8.00;;;;;;;12.42;88.20;101218.78;4953648;28;20545;-81
2022/06/07 05:09:31;;;;;;;13.00;8.13;;;;;;;12.45;87.89;101225.63;4952468;28;20405;-81
2022/06/07 05:11:56;;;;;;;10.95;7.90;;;;;;;12.45;87.54;101229.09;4952218;29;20030;-81
2022/06/07 05:14:23;;;;;;;11.48;7.93;;;;;;;12.43;87.45;101232.81;4953647;28;20071;-81
2022/06/07 05:16:49;;;;;;;10.88;7.60;;;;;;;12.45;87.77;101230.91;4952166;28;20054;-81
2022/06/07 05:19:15;;;;;;;11.20;8.00;;;;;;;12.46;87.39;101230.78;4953430;28;20545;-81
2022/06/07 05:21:41;;;;;;;10.57;7.60;;;;;;;12.47;87.54;101234.25;4952744;28;20130;-81
2022/06/07 05:24:07;;;;;;;12.00;7.82;;;;;;;12.49;87.80;101241.09;4967809;28;20027;-81
2022/06/07 05:26:42;;;;;;;13.38;8.25;;;;;;;12.50;87.93;101237.50;4951628;29;20069;-81
2022/06/07 05:29:17;;;;;;;11.65;8.13;;;;;;;12.53;87.86;101242.53;4953446;28;20031;-81
2022/06/07 05:31:42;;;;;;;11.95;8.75;;;;;;;12.57;87.77;101239.66;4952412;28;20062;-81
2022/06/07 05:34:08;;;;;;;11.93;8.90;;;;;;;12.55;87.89;101240.63;4952979;29;20035;-81
2022/06/07 05:36:33;;;;;;;14.50;8.60;;;;;;;12.62;87.45;101241.00;4953695;28;20159;-81
2022/06/07 05:38:58;;;;;;;13.15;8.27;;;;;;;12.65;87.62;101234.66;4953956;28;20027;-82
2022/06/07 05:41:25;;;;;;;13.45;8.90;;;;;;;12.68;87.84;101239.69;4954362;29;20042;-81
2022/06/07 05:43:51;;;;;;;12.05;8.55;;;;;;;12.71;87.12;101239.44;4953739;28;20030;-81
2022/06/07 05:46:17;;;;;;;12.80;8.90;;;;;;;12.69;87.51;101230.81;4952136;28;20094;-81
2022/06/07 05:48:42;;;;;;;18.15;8.98;;;;;;;12.71;87.41;101232.38;4953856;28;20450;-81
2022/06/07 05:51:08;;;;;;;11.57;8.82;;;;;;;12.77;87.93;101244.25;4954094;28;20034;-81
2022/06/07 05:53:33;;;;;;;13.95;8.85;;;;;;;12.84;87.63;101242.84;4956274;28;20627;-81
2022/06/07 05:56:12;;;;;;;14.82;9.38;;;;;;;12.86;87.14;101247.06;4957068;29;20023;-81
2022/06/07 05:58:38;;;;;;;12.98;9.05;;;;;;;12.93;87.68;101250.06;4955102;28;20038;-81
2022/06/07 06:01:04;;;;;;;15.60;10.13;;;;;;;12.98;88.03;101242.63;4955253;28;20027;-81
2022/06/07 06:03:30;;;;;;;16.17;10.65;;;;;;;13.05;87.84;101243.81;4952354;28;20454;-81
2022/06/07 06:05:56;;;;;;;15.25;10.65;;;;;;;13.10;88.39;101241.66;4973270;28;20022;-81
2022/06/07 06:11:10;;;;;;;17.95;11.38;;;;;;;13.28;88.08;101243.84;4973445;28;20404;-81
2022/06/07 06:13:36;;;;;;;15.95;11.13;;;;;;;13.39;87.44;101241.19;4952105;28;20477;-81
2022/06/07 06:16:09;;;;;;;17.23;11.20;;;;;;;13.45;87.44;101241.53;4952643;28;20035;-82
2022/06/07 06:18:34;;;;;;;15.50;10.38;;;;;;;13.55;87.44;101233.72;4964072;28;20393;-82
2022/06/07 06:21:00;;;;;;;20.98;11.68;;;;;;;13.64;86.53;101234.81;4971582;28;20030;-81
2022/06/07 06:23:26;;;;;;;17.67;11.00;;;;;;;13.74;87.47;101238.38;4989310;28;20022;-81
2022/06/07 06:25:51;;;;;;;16.45;11.98;;;;;;;13.81;87.42;101234.25;4974226;28;20034;-81
2022/06/07 06:28:17;;;;;;;14.80;11.73;;;;;;;13.92;86.73;101228.09;4974761;28;20031;-81
2022/06/07 06:30:46;;;;;;;17.08;11.88;;;;;;;14.00;86.45;101225.66;4991261;28;20094;-80
2022/06/07 06:33:12;;;;;;;15.88;11.52;;;;;;;14.14;86.32;101228.00;4973844;28;20035;-81
2022/06/07 06:35:38;;;;;;;17.45;13.38;;;;;;;14.23;85.92;101227.25;4971418;28;20405;-81
2022/06/07 06:38:04;;;;;;;19.92;13.07;;;;;;;14.30;85.98;101231.06;4973180;28;20026;-81
2022/06/07 06:40:30;;;;;;;17.42;12.80;;;;;;;14.31;85.26;101234.53;4973266;28;20601;-81
2022/06/07 06:42:55;;;;;;;19.67;13.43;;;;;;;14.26;85.07;101232.28;4973079;28;20026;-82
2022/06/07 06:45:20;;;;;;;16.40;12.82;;;;;;;14.32;85.60;101230.94;4972339;28;20440;-81
2022/06/07 06:47:46;;;;;;;16.48;13.13;;;;;;;14.30;85.72;101228.41;4971791;28;20030;-81
2022/06/07 06:50:13;;;;;;;16.25;12.73;;;;;;;14.32;86.34;101229.13;4971712;28;20388;-81
2022/06/07 06:52:39;;;;;;;17.42;14.10;;;;;;;14.30;85.42;101232.88;4970407;28;20027;-81
2022/06/07 06:55:05;;;;;;;19.77;14.32;;;;;;;14.37;85.79;101234.88;4971625;28;20148;-81
2022/06/07 06:57:30;;;;;;;17.70;13.98;;;;;;;14.52;85.78;101239.91;4970113;28;20031;-81
2022/06/07 06:59:55;;;;;;;17.17;13.07;;;;;;;14.74;85.12;101237.09;4987123;28;20030;-81
2022/06/07 07:02:21;;;;;;;16.33;12.80;;;;;;;15.04;84.30;101250.38;4970222;28;20126;-81
2022/06/07 07:04:46;;;;;;;17.95;13.10;;;;;;;15.27;82.64;101253.69;4961984;28;20030;-81
2022/06/07 07:07:11;;;;;;;15.77;12.23;;;;;;;15.47;81.81;101251.09;4951316;29;20030;-81
2022/06/07 07:09:37;;;;;;;14.73;11.90;;;;;;;15.61;79.91;101248.09;4951499;29;20027;-82
2022/06/07 07:12:02;;;;;;;17.83;13.27;;;;;;;15.61;79.06;101243.66;4951373;28;20070;-81
2022/06/07 07:14:31;;;;;;;18.33;13.27;;;;;;;15.61;79.87;101248.94;4952307;29;20027;-81
2022/06/07 07:16:56;;;;;;;18.73;12.05;;;;;;;15.55;79.80;101246.78;4950850;29;20061;-81
2022/06/07 07:19:22;;;;;;;16.90;12.50;;;;;;;15.58;80.28;101248.34;4970834;28;20054;-82
2022/06/07 07:21:49;;;;;;;14.68;12.77;;;;;;;15.54;80.58;101246.91;4969261;28;20054;-82
2022/06/07 07:24:18;;;;;;;17.23;12.75;;;;;;;15.72;80.86;101249.81;4970021;28;20462;-81
2022/06/07 07:26:45;;;;;;;18.13;13.50;;;;;;;15.95;79.16;101243.25;4969642;28;20026;-81
2022/06/07 07:29:12;;;;;;;18.48;14.18;;;;;;;16.26;79.36;101234.19;4969389;28;20050;-81
2022/06/07 07:31:38;;;;;;;19.38;14.00;;;;;;;16.61;77.90;101235.41;4969332;28;20031;-82
2022/06/07 07:34:07;;;;;;;17.08;13.90;;;;;;;17.06;77.35;101238.25;4970795;28;20078;-81
2022/06/07 07:36:33;;;;;;;16.30;13.48;;;;;;;17.35;74.22;101239.94;4970064;28;20114;-81
2022/06/07 07:38:58;;;;;;;18.17;13.05;;;;;;;17.62;74.71;101239.09;4970109;28;20026;-81
2022/06/07 07:41:31;;;;;;;16.42;12.38;;;;;;;17.75;73.76;101235.13;4969225;28;20027;-81
2022/06/07 07:44:00;;;;;;;17.27;13.38;;;;;;;17.64;72.66;101240.63;4985068;28;20033;-82
2022/06/07 07:46:29;;;;;;;15.20;11.60;;;;;;;17.57;73.06;101239.53;4968457;28;20023;-81
2022/06/07 07:48:55;;;;;;;15.20;12.35;;;;;;;17.41;72.86;101236.69;4968844;28;20027;-81
2022/06/07 07:51:29;;;;;;;17.63;12.90;;;;;;;17.22;74.40;101237.63;4968368;28;20389;-81
2022/06/07 07:53:57;;;;;;;15.18;12.68;;;;;;;17.06;74.64;101238.25;4970149;28;20509;-81
2022/06/07 07:56:24;;;;;;;17.75;12.73;;;;;;;16.96;75.27;101236.59;4970267;28;20504;-81
2022/06/07 07:58:51;;;;;;;17.67;13.18;;;;;;;16.82;75.53;101230.78;4968860;28;20050;-81
2022/06/07 08:01:21;;;;;;;18.98;13.27;;;;;;;16.88;76.06;101235.50;4970772;28;20038;-81
2022/06/07 08:03:48;;;;;;;16.23;14.50;;;;;;;17.08;75.67;101243.41;4967638;28;20507;-81
2022/06/07 08:06:18;;;;;;;17.67;14.90;;;;;;;17.16;74.52;101241.69;4950060;29;20027;-82
2022/06/07 08:08:49;;;;;;;17.45;14.05;;;;;;;17.21;74.17;101231.47;4950940;28;20042;-81
2022/06/07 08:11:15;;;;;;;15.85;13.02;;;;;;;17.22;74.50;101237.63;4950283;29;20109;-81
2022/06/07 08:13:42;;;;;;;21.45;13.57;;;;;;;17.36;73.94;101233.63;4949993;28;20055;-81
2022/06/07 08:16:09;;;;;;;16.98;14.93;;;;;;;17.83;74.20;101231.69;4966582;28;20054;-81
2022/06/07 08:18:35;;;;;;;16.40;14.23;;;;;;;18.05;72.29;101230.44;4963093;28;20112;-81
2022/06/07 08:21:05;;;;;;;15.30;13.05;;;;;;;18.08;71.91;101228.28;4970701;28;20389;-81
2022/06/07 08:23:30;;;;;;;19.70;15.68;;;;;;;18.33;70.67;101228.47;4985343;28;20077;-82
2022/06/07 08:25:56;;;;;;;20.30;18.23;;;;;;;18.45;70.95;101232.59;4971110;28;20031;-81
2022/06/07 08:28:22;;;;;;;22.50;18.88;;;;;;;18.61;69.52;101224.72;4969998;28;20493;-81
2022/06/07 08:30:48;;;;;;;18.27;16.35;;;;;;;18.78;69.18;101223.84;4984068;28;20054;-81
2022/06/07 08:38:42;;;;;;;16.70;14.32;;;;;;;18.55;68.59;101227.16;4969202;28;20045;-81
2022/06/07 08:41:20;;;;;;;16.65;14.23;;;;;;;18.51;69.69;101221.31;4968879;28;20022;-81
2022/06/07 08:43:45;;;;;;;15.90;14.20;;;;;;;18.37;69.05;101221.84;4969015;28;20038;-81
2022/06/07 08:46:16;;;;;;;15.63;13.95;;;;;;;18.37;68.43;101224.50;4969684;28;20027;-81
2022/06/07 08:48:42;;;;;;;17.95;13.98;;;;;;;18.35;70.55;101219.34;4968367;28;20030;-81
2022/06/07 08:51:13;;;;;;;16.10;13.95;;;;;;;18.45;68.20;101227.25;4969739;28;20029;-81
2022/06/07 08:53:44;;;;;;;18.35;16.27;;;;;;;18.70;69.25;101220.28;4968897;28;20026;-81
2022/06/07 08:56:15;;;;;;;19.08;17.33;;;;;;;19.07;68.11;101220.84;4983725;28;20540;-81
2022/06/07 08:58:43;;;;;;;19.35;17.30;;;;;;;19.51;66.90;101220.66;4968680;28;20106;-81
2022/06/07 09:01:20;;;;;;;19.42;15.55;;;;;;;19.70;66.14;101217.78;4969499;28;20442;-79
2022/06/07 09:03:46;;;;;;;15.77;14.30;;;;;;;19.77;63.34;101217.94;4981661;28;20039;-80
2022/06/07 09:06:24;;;;;;;14.02;12.73;;;;;;;20.01;63.95;101214.44;4950524;29;20029;-80
2022/06/07 09:08:53;;;;;;;16.92;14.55;;;;;;;20.08;61.65;101209.31;4963338;28;20106;-80
2022/06/07 09:14:19;;;;;;;15.38;13.77;;;;;;;20.41;63.17;101210.97;4950119;29;20042;-80
2022/06/07 09:16:44;;;;;;;15.20;12.80;;;;;;;20.38;59.90;101211.28;4949429;28;20035;-80
2022/06/07 09:19:22;;;;;;;14.40;11.98;;;;;;;20.22;62.90;101209.47;4966418;28;20022;-82
2022/06/07 09:21:49;;;;;;;17.10;11.57;;;;;;;19.89;61.57;101215.78;4984765;28;20023;-82
2022/06/07 09:24:45;;;;;;;15.45;11.68;;;;;;;19.99;62.80;101214.63;4969951;28;20026;-82
2022/06/07 09:27:20;;;;;;;15.23;12.75;;;;;;;19.94;64.21;101216.94;4973562;28;20030;-82
2022/06/07 09:29:55;;;;;;;11.88;10.57;;;;;;;20.01;62.11;101203.75;4971319;28;20109;-82
2022/06/07 09:32:24;;;;;;;12.80;10.68;;;;;;;20.21;61.50;101206.97;4972777;28;20027;-82
2022/06/07 09:35:01;;;;;;;14.77;9.45;;;;;;;20.32;61.55;101199.44;4973137;28;20132;-82
2022/06/07 09:37:37;;;;;;;10.68;9.10;;;;;;;20.48;59.80;101201.31;4973270;28;20030;-80
2022/06/07 09:40:28;;;;;;;11.18;8.27;;;;;;;20.70;59.67;101198.91;4972367;28;20026;-80
2022/06/07 09:43:01;;;;;;;10.48;8.55;;;;;;;20.73;59.26;101206.59;4988176;28;20030;-79
2022/06/07 09:45:38;;;;;;;13.90;8.52;;;;;;;20.82;59.84;101206.41;4973277;28;20098;-80
2022/06/07 09:48:27;;;;;;;9.38;8.00;;;;;;;20.95;60.76;101205.88;4973636;28;20053;-80
2022/06/07 09:51:06;;;;;;;10.00;7.60;;;;;;;20.92;56.88;101196.34;4969980;28;20030;-80
2022/06/07 09:53:41;;;;;;;6.85;6.00;;;;;;;20.98;59.44;101197.50;4972045;28;20023;-80
2022/06/07 09:56:16;;;;;;;7.65;5.82;;;;;;;20.85;58.28;101206.06;4987280;28;20023;-80
2022/06/07 09:59:00;;;;;;;7.65;6.53;;;;;;;20.61;58.22;101196.25;4969893;28;20205;-80
2022/06/07 10:01:50;;;;;;;10.63;8.23;;;;;;;20.43;59.75;101194.81;4972171;28;20505;-80
2022/06/07 10:04:43;;;;;;;10.57;7.13;;;;;;;20.17;60.77;101189.59;4962344;28;20126;-80
2022/06/07 10:07:26;;;;;;;9.23;7.97;;;;;;;20.08;60.54;101193.28;4933034;29;20547;-80
2022/06/07 10:10:28;;;;;;;9.98;8.25;;;;;;;19.95;60.65;101191.06;4932742;29;20434;-80
2022/06/07 10:12:58;;;;;;;10.05;7.65;;;;;;;19.87;61.41;101199.94;4964035;28;20231;-79
2022/06/07 10:15:41;;;;;;;10.02;6.78;;;;;;;20.12;60.69;101183.94;4951399;29;20489;-80
2022/06/07 10:18:10;;;;;;;7.25;5.15;;;;;;;20.13;58.28;101183.75;4960776;28;20030;-81
2022/06/07 10:20:38;;;;;;;8.45;4.63;;;;;;;20.08;59.13;101183.44;4969317;28;20066;-82
2022/06/07 10:23:21;;;;;;;8.40;5.78;;;;;;;20.31;59.96;101180.88;4970697;28;20027;-81
2022/06/07 10:26:05;;;;;;;15.05;8.60;;;;;;;20.60;59.76;101183.91;4971319;28;20035;-81
2022/06/07 10:28:57;;;;;;;11.38;7.28;;;;;;;20.70;57.04;101174.84;4970015;28;20485;-82
2022/06/07 10:31:41;;;;;;;7.55;4.55;;;;;;;20.61;56.33;101185.56;4971839;28;20031;-82
2022/06/07 10:34:16;;;;;;;6.20;4.03;;;;;;;20.31;56.83;101175.53;4969667;28;20077;-82
2022/06/07 10:36:56;;;;;;;6.20;3.92;;;;;;;20.10;58.06;101178.75;4986017;28;20030;-82
2022/06/07 10:39:35;;;;;;;7.63;4.20;;;;;;;19.88;57.24;101182.06;4972282;28;20031;-82
2022/06/07 10:42:29;;;;;;;7.63;3.97;;;;;;;19.81;59.34;101179.22;4972487;28;20022;-82
2022/06/07 10:45:11;;;;;;;6.57;4.07;;;;;;;19.88;58.45;101177.56;4972435;28;20057;-80
2022/06/07 10:48:10;;;;;;;7.18;4.70;;;;;;;20.04;58.90;101174.06;4971306;28;20027;-79
2022/06/07 10:50:53;;;;;;;9.88;4.60;;;;;;;20.18;57.80;101180.56;4970442;28;20035;-80
2022/06/07 10:53:42;;;;;;;7.22;4.80;;;;;;;20.23;59.46;101173.72;4971096;28;20022;-82
2022/06/07 10:56:38;;;;;;;11.48;4.70;;;;;;;20.21;58.99;101164.22;4986640;28;20031;-80
2022/06/07 10:59:16;;;;;;;7.97;3.80;;;;;;;20.25;56.96;101165.53;4972404;28;20170;-80
2022/06/07 11:01:52;;;;;;;6.38;3.60;;;;;;;20.21;56.49;101169.56;4971003;28;20157;-80
2022/06/07 11:10:15;;;;;;;5.30;2.97;;;;;;;20.53;55.47;101171.38;4951101;29;20046;-80
2022/06/07 11:12:56;;;;;;;5.95;3.00;;;;;;;20.68;54.33;101172.34;4965610;28;20027;-80
2022/06/07 11:16:01;;;;;;;6.38;2.40;;;;;;;21.10;55.80;101171.19;4949745;28;20049;-80
2022/06/07 11:18:27;;;;;;;5.78;2.40;;;;;;;21.47;52.75;101157.97;4960970;28;20412;-80
2022/06/07 11:21:02;;;;;;;5.68;2.38;;;;;;;21.55;52.75;101165.94;4968838;28;20022;-80
2022/06/07 11:23:42;;;;;;;3.08;2.13;;;;;;;21.38;51.84;101167.06;4970306;28;20117;-80
2022/06/07 11:26:14;;;;;;;5.70;2.28;;;;;;;21.24;51.72;101162.47;4970777;28;20026;-80
2022/06/07 11:28:39;;;;;;;5.85;2.58;;;;;;;21.28;51.39;101155.75;4970112;28;20038;-80
2022/06/07 11:31:23;;;;;;;5.22;2.60;;;;;;;21.41;54.01;101163.22;4968776;28;20031;-80
2022/06/07 11:33:52;;;;;;;6.85;2.25;;;;;;;21.48;52.92;101159.63;4970101;28;20051;-80
2022/06/07 11:36:20;;;;;;;4.32;1.90;;;;;;;21.50;52.50;101164.81;4970367;28;20026;-80
2022/06/07 11:38:57;;;;;;;3.03;1.70;;;;;;;21.48;53.65;101166.84;4969735;28;20042;-80
2022/06/07 11:41:41;;;;;;;6.47;1.90;;;;;;;21.42;53.88;101170.22;4970403;28;20034;-80
2022/06/07 11:44:10;;;;;;;6.22;1.77;;;;;;;21.45;55.21;101165.34;4970060;28;20031;-80
2022/06/07 11:46:35;;;;;;;3.70;1.77;;;;;;;21.40;52.54;101161.53;4968535;28;20092;-80
2022/06/07 11:49:19;;;;;;;6.00;1.83;;;;;;;21.38;54.49;101168.91;4968659;28;20031;-80
2022/06/07 11:52:12;;;;;;;7.68;2.10;;;;;;;21.30;53.87;101160.94;4968693;28;20038;-80